createdAt,value
2018-12-07T00:00:30.203Z,105.83
2018-12-07T00:02:57.730Z,111.60
2018-12-07T00:05:25.072Z,106.73
2018-12-07T00:07:52.421Z,111.20
2018-12-07T00:10:19.784Z,98.20
2018-12-07T00:12:47.094Z,97.40
2018-12-07T00:15:14.485Z,99.83
2018-12-07T00:17:41.842Z,100.07
2018-12-07T00:20:09.334Z,105.23
2018-12-07T00:22:36.762Z,101.17
2018-12-07T00:25:04.531Z,100.33
2018-12-07T00:27:31.992Z,103.57
2018-12-07T00:29:59.674Z,97.23
2018-12-07T00:32:27.073Z,96.20
2018-12-07T00:34:54.435Z,100.83
2018-12-07T00:37:21.798Z,98.37
2018-12-07T00:39:49.182Z,105.80
2018-12-07T00:42:16.636Z,99.20
2018-12-07T00:44:43.974Z,97.30
2018-12-07T00:47:11.315Z,99.30
2018-12-07T00:49:38.685Z,97.77
2018-12-07T00:52:06.089Z,111.50
2018-12-07T00:54:33.480Z,98.57
2018-12-07T00:57:00.838Z,97.10
2018-12-07T00:59:28.207Z,99.13
2018-12-07T01:01:57.608Z,94.57
2018-12-07T01:04:24.962Z,99.60
2018-12-07T01:06:52.319Z,107.53
2018-12-07T01:09:19.696Z,103.40
2018-12-07T01:11:47.140Z,113.33
2018-12-07T01:14:14.476Z,96.50
2018-12-07T01:16:42.965Z,102.07
2018-12-07T01:19:10.320Z,99.77
2018-12-07T01:21:37.774Z,100.50
2018-12-07T01:24:05.142Z,105.60
2018-12-07T01:26:32.468Z,96.53
2018-12-07T01:28:59.874Z,106.37
2018-12-07T01:31:27.296Z,104.97
2018-12-07T01:33:54.686Z,104.63
2018-12-07T01:36:22.177Z,100.33
2018-12-07T01:38:49.554Z,99.13
2018-12-07T01:41:16.936Z,101.00
2018-12-07T01:43:44.258Z,98.40
2018-12-07T01:46:11.674Z,94.87
2018-12-07T01:48:39.059Z,93.93
2018-12-07T01:51:06.525Z,100.50
2018-12-07T01:53:34.205Z,102.60
2018-12-07T01:56:01.566Z,100.40
2018-12-07T01:58:28.912Z,98.00
2018-12-07T02:00:56.267Z,93.83
2018-12-07T02:03:23.878Z,93.00
2018-12-07T02:05:51.264Z,98.90
2018-12-07T02:08:18.643Z,98.77
2018-12-07T02:10:46.043Z,99.10
2018-12-07T02:13:13.377Z,98.87
2018-12-07T02:15:40.822Z,96.87
2018-12-07T02:18:08.245Z,104.30
2018-12-07T02:20:35.625Z,98.47
2018-12-07T02:23:02.994Z,96.57
2018-12-07T02:25:30.434Z,95.93
2018-12-07T02:27:59.320Z,91.03
2018-12-07T02:30:26.835Z,94.73
2018-12-07T02:32:54.247Z,95.10
2018-12-07T02:35:21.580Z,94.63
2018-12-07T02:37:48.960Z,104.07
2018-12-07T02:40:16.306Z,94.67
2018-12-07T02:42:43.649Z,98.40
2018-12-07T02:45:11.014Z,94.50
2018-12-07T02:47:38.363Z,95.30
2018-12-07T02:50:05.726Z,97.23
2018-12-07T02:52:33.236Z,93.97
2018-12-07T02:55:00.728Z,98.57
2018-12-07T02:57:28.080Z,97.23
2018-12-07T02:59:55.424Z,101.80
2018-12-07T03:02:22.795Z,103.77
2018-12-07T03:04:50.182Z,104.90
2018-12-07T03:07:17.592Z,105.40
2018-12-07T03:09:44.980Z,101.67
2018-12-07T03:12:12.438Z,103.20
2018-12-07T03:14:39.773Z,102.70
2018-12-07T03:17:07.158Z,105.43
2018-12-07T03:19:34.573Z,111.30
2018-12-07T03:22:01.941Z,104.30
2018-12-07T03:24:29.302Z,106.53
2018-12-07T03:26:56.645Z,108.07
2018-12-07T03:29:24.299Z,101.50
2018-12-07T03:31:51.649Z,101.53
2018-12-07T03:34:19.017Z,100.30
2018-12-07T03:36:46.388Z,100.00
2018-12-07T03:39:13.713Z,100.23
2018-12-07T03:41:41.107Z,108.63
2018-12-07T03:44:08.556Z,104.13
2018-12-07T03:46:35.914Z,112.80
2018-12-07T03:49:03.260Z,114.63
2018-12-07T03:51:30.627Z,104.70
2018-12-07T03:53:58.079Z,107.37
2018-12-07T03:56:25.428Z,106.87
2018-12-07T03:58:52.762Z,113.13
2018-12-07T04:01:20.475Z,108.17
2018-12-07T04:03:47.885Z,99.87
2018-12-07T04:06:15.264Z,110.77
2018-12-07T04:08:42.594Z,112.37
2018-12-07T04:11:09.968Z,105.90
2018-12-07T04:13:37.273Z,105.20
2018-12-07T04:16:04.683Z,102.20
2018-12-07T04:18:32.114Z,96.97
2018-12-07T04:20:59.462Z,106.50
2018-12-07T04:23:26.844Z,109.17
2018-12-07T04:25:54.218Z,107.53
2018-12-07T04:28:21.630Z,115.70
2018-12-07T04:30:48.988Z,107.90
2018-12-07T04:33:16.432Z,109.60
2018-12-07T04:35:43.809Z,114.60
2018-12-07T04:38:11.189Z,196.70
2018-12-07T04:40:38.728Z,176.90
2018-12-07T04:43:06.103Z,118.93
2018-12-07T04:45:33.621Z,185.53
2018-12-07T04:48:01.000Z,171.67
2018-12-07T04:50:28.357Z,141.07
2018-12-07T04:52:55.797Z,155.97
2018-12-07T04:55:24.303Z,138.47
2018-12-07T04:57:51.728Z,133.27
2018-12-07T05:00:19.104Z,118.10
2018-12-07T05:02:46.465Z,123.27
2018-12-07T05:05:13.793Z,123.37
2018-12-07T05:07:41.189Z,110.73
2018-12-07T05:10:08.727Z,106.90
2018-12-07T05:12:36.262Z,109.47
2018-12-07T05:15:03.869Z,116.50
2018-12-07T05:17:31.303Z,111.97
2018-12-07T05:19:58.950Z,114.87
2018-12-07T05:22:26.311Z,117.40
2018-12-07T05:24:53.682Z,112.33
2018-12-07T05:27:21.026Z,107.27
2018-12-07T05:29:48.476Z,111.73
2018-12-07T05:32:15.840Z,106.37
2018-12-07T05:34:43.296Z,106.67
2018-12-07T05:37:10.731Z,111.27
2018-12-07T05:39:38.102Z,117.07
2018-12-07T05:42:05.503Z,107.17
2018-12-07T05:45:57.449Z,105.47
2018-12-07T05:48:24.865Z,100.40
2018-12-07T05:50:52.334Z,107.67
2018-12-07T05:53:19.752Z,105.57
2018-12-07T05:55:47.109Z,102.20
2018-12-07T05:58:14.485Z,98.93
2018-12-07T06:00:41.811Z,105.17
2018-12-07T06:03:09.221Z,111.17
2018-12-07T06:05:36.656Z,106.83
2018-12-07T06:08:04.008Z,100.20
2018-12-07T06:10:31.450Z,104.87
2018-12-07T06:12:58.851Z,107.60
2018-12-07T06:15:26.301Z,109.67
2018-12-07T06:17:53.728Z,107.23
2018-12-07T06:20:21.416Z,105.57
2018-12-07T06:22:48.844Z,111.53
2018-12-07T06:25:16.217Z,115.00
2018-12-07T06:27:43.708Z,116.10
2018-12-07T06:30:11.132Z,128.40
2018-12-07T06:32:38.557Z,108.87
2018-12-07T06:35:05.923Z,106.70
2018-12-07T06:37:33.302Z,105.13
2018-12-07T06:40:00.728Z,101.70
2018-12-07T06:42:28.100Z,106.67
2018-12-07T06:44:55.797Z,98.57
2018-12-07T06:47:23.213Z,108.23
2018-12-07T06:49:50.546Z,112.60
2018-12-07T06:52:17.924Z,106.33
2018-12-07T06:54:45.908Z,104.53
2018-12-07T06:57:13.355Z,113.40
2018-12-07T06:59:40.706Z,102.23
2018-12-07T07:02:08.080Z,113.63
2018-12-07T07:04:35.514Z,112.40
2018-12-07T07:07:02.877Z,119.00
2018-12-07T07:09:30.258Z,126.10
2018-12-07T07:11:57.679Z,126.93
2018-12-07T07:14:24.979Z,124.00
2018-12-07T07:16:52.402Z,112.53
2018-12-07T07:19:19.863Z,108.80
2018-12-07T07:21:47.294Z,109.60
2018-12-07T07:24:14.670Z,118.07
2018-12-07T07:26:42.129Z,107.10
2018-12-07T07:29:09.577Z,104.47
2018-12-07T07:31:43.205Z,109.73
2018-12-07T07:34:06.350Z,112.87
2018-12-07T07:36:33.767Z,116.83
2018-12-07T07:39:01.162Z,108.57
2018-12-07T07:41:28.594Z,118.27
2018-12-07T07:43:56.185Z,115.40
2018-12-07T07:46:23.627Z,106.83
2018-12-07T07:48:51.058Z,106.83
2018-12-07T07:51:18.716Z,111.70
2018-12-07T07:53:46.069Z,117.10
2018-12-07T07:56:15.536Z,121.20
2018-12-07T07:58:44.131Z,117.53
2018-12-07T08:01:11.630Z,105.53
2018-12-07T08:03:39.007Z,110.33
2018-12-07T08:06:06.450Z,108.03
2018-12-07T08:08:33.816Z,110.80
2018-12-07T08:11:01.233Z,106.97
2018-12-07T08:13:28.604Z,107.53
2018-12-07T08:15:55.947Z,112.07
2018-12-07T08:18:23.338Z,110.83
2018-12-07T08:20:51.972Z,108.17
2018-12-07T08:23:19.482Z,114.23
2018-12-07T08:25:46.943Z,110.57
2018-12-07T08:28:14.359Z,105.30
2018-12-07T08:30:41.824Z,102.77
2018-12-07T08:33:09.192Z,114.23
2018-12-07T08:35:36.661Z,105.77
2018-12-07T08:38:04.221Z,105.53
2018-12-07T08:40:31.953Z,101.43
2018-12-07T08:42:59.323Z,104.80
2018-12-07T08:45:26.828Z,105.47
2018-12-07T08:47:54.225Z,97.37
2018-12-07T08:50:21.622Z,102.90
2018-12-07T08:52:49.037Z,96.53
2018-12-07T08:55:16.401Z,97.77
2018-12-07T08:57:43.775Z,98.50
2018-12-07T09:00:11.345Z,100.17
2018-12-07T09:02:38.915Z,96.70
2018-12-07T09:05:06.440Z,94.67
2018-12-07T09:07:33.766Z,102.67
2018-12-07T09:10:01.133Z,95.80
2018-12-07T09:12:28.500Z,98.87
2018-12-07T09:14:56.189Z,94.93
2018-12-07T09:17:23.620Z,97.80
2018-12-07T09:19:50.965Z,98.70
2018-12-07T09:22:18.328Z,99.00
2018-12-07T09:24:45.684Z,97.17
2018-12-07T09:27:13.018Z,125.20
2018-12-07T09:29:40.393Z,122.30
2018-12-07T09:32:07.854Z,105.20
2018-12-07T09:34:35.181Z,105.03
2018-12-07T09:37:02.651Z,103.60
2018-12-07T09:39:29.996Z,99.60
2018-12-07T09:41:57.352Z,99.80
2018-12-07T09:44:24.728Z,98.70
2018-12-07T09:46:52.060Z,90.83
2018-12-07T09:49:19.415Z,98.67
2018-12-07T09:51:46.788Z,102.03
2018-12-07T09:54:14.141Z,93.20
2018-12-07T09:56:41.514Z,96.40
2018-12-07T09:59:08.953Z,96.87
2018-12-07T10:01:36.299Z,97.00
2018-12-07T10:04:03.690Z,102.07
2018-12-07T10:06:31.099Z,96.80
2018-12-07T10:08:58.489Z,102.80
2018-12-07T10:11:25.834Z,107.40
2018-12-07T10:13:53.174Z,100.07
2018-12-07T10:16:20.494Z,99.50
2018-12-07T10:18:47.961Z,98.47
2018-12-07T10:21:15.327Z,104.00
2018-12-07T10:23:42.675Z,97.07
2018-12-07T10:26:10.388Z,103.80
2018-12-07T10:28:37.812Z,102.53
2018-12-07T10:31:05.149Z,107.83
2018-12-07T10:33:32.640Z,104.83
2018-12-07T10:36:00.002Z,101.97
2018-12-07T10:38:27.616Z,102.03
2018-12-07T10:40:54.995Z,102.20
2018-12-07T10:43:22.339Z,105.03
2018-12-07T10:45:49.725Z,99.10
2018-12-07T10:48:17.129Z,105.10
2018-12-07T10:50:44.527Z,106.53
2018-12-07T10:53:11.858Z,100.30
2018-12-07T10:55:39.230Z,108.93
2018-12-07T10:58:07.435Z,103.27
2018-12-07T11:00:40.468Z,109.63
2018-12-07T11:03:13.136Z,110.33
2018-12-07T11:05:47.760Z,102.27
2018-12-07T11:08:20.651Z,114.00
2018-12-07T11:10:53.873Z,109.53
2018-12-07T11:13:26.546Z,104.40
2018-12-07T11:15:59.361Z,114.40
2018-12-07T11:20:35.365Z,110.70
2018-12-07T11:23:27.074Z,106.77
2018-12-07T11:25:59.855Z,100.03
2018-12-07T11:28:32.696Z,113.47
2018-12-07T11:31:05.501Z,99.90
2018-12-07T11:33:40.128Z,107.37
2018-12-07T11:36:08.289Z,112.40
2018-12-07T11:38:35.831Z,108.73
2018-12-07T11:41:03.353Z,108.03
2018-12-07T11:43:30.750Z,103.13
2018-12-07T11:45:58.108Z,110.30
2018-12-07T11:48:25.806Z,118.03
2018-12-07T11:50:53.249Z,120.97
2018-12-07T11:53:20.783Z,105.43
2018-12-07T11:55:48.290Z,106.00
2018-12-07T11:58:15.706Z,103.00
2018-12-07T12:00:43.284Z,115.50
2018-12-07T12:03:10.715Z,111.77
2018-12-07T12:05:38.229Z,110.77
2018-12-07T12:08:05.971Z,109.47
2018-12-07T12:10:33.402Z,127.43
2018-12-07T12:13:00.760Z,115.00
2018-12-07T12:15:28.124Z,121.10
2018-12-07T12:17:58.521Z,111.87
2018-12-07T12:20:26.097Z,114.23
2018-12-07T12:22:53.439Z,100.47
2018-12-07T12:25:21.156Z,99.97
2018-12-07T12:27:48.582Z,104.23
2018-12-07T12:30:17.817Z,99.43
2018-12-07T12:32:45.374Z,104.77
2018-12-07T12:35:12.770Z,98.97
2018-12-07T12:37:40.137Z,104.27
2018-12-07T12:40:07.487Z,103.93
2018-12-07T12:42:34.827Z,98.33
2018-12-07T12:45:02.352Z,102.00
2018-12-07T12:47:29.756Z,98.57
2018-12-07T12:49:57.100Z,89.70
2018-12-07T12:52:24.645Z,92.90
2018-12-07T12:54:52.208Z,95.03
2018-12-07T12:57:19.586Z,94.57
2018-12-07T12:59:46.937Z,92.07
2018-12-07T13:02:14.714Z,86.67
2018-12-07T13:04:42.058Z,85.33
2018-12-07T13:07:09.391Z,87.33
2018-12-07T13:09:36.764Z,89.33
2018-12-07T13:12:04.686Z,91.23
2018-12-07T13:14:32.094Z,105.40
2018-12-07T13:16:59.458Z,88.63
2018-12-07T13:19:26.899Z,91.27
2018-12-07T13:21:54.386Z,90.80
2018-12-07T13:24:21.819Z,83.90
2018-12-07T13:26:49.179Z,81.67
2018-12-07T13:29:16.669Z,79.70
2018-12-07T13:31:44.172Z,91.77
2018-12-07T13:34:11.653Z,90.30
2018-12-07T13:36:39.023Z,90.10
2018-12-07T13:39:07.573Z,91.60
2018-12-07T13:41:35.107Z,91.57
2018-12-07T13:44:02.536Z,86.97
2018-12-07T13:46:30.174Z,100.70
2018-12-07T13:48:57.738Z,88.70
2018-12-07T13:51:25.278Z,99.30
2018-12-07T13:53:52.844Z,94.40
2018-12-07T13:56:20.487Z,86.67
2018-12-07T13:58:48.058Z,94.57
2018-12-07T14:01:15.592Z,85.40
2018-12-07T14:03:43.378Z,99.57
2018-12-07T14:06:10.872Z,86.93
2018-12-07T14:08:38.740Z,87.83
2018-12-07T14:11:06.282Z,86.80
2018-12-07T14:13:33.968Z,84.37
2018-12-07T14:16:01.420Z,83.77
2018-12-07T14:18:29.090Z,87.10
2018-12-07T14:20:56.731Z,81.70
2018-12-07T14:23:24.308Z,86.90
2018-12-07T14:25:51.897Z,87.17
2018-12-07T14:28:19.472Z,88.10
2018-12-07T14:30:47.056Z,84.80
2018-12-07T14:33:14.688Z,83.50
2018-12-07T14:35:42.235Z,88.97
2018-12-07T14:38:09.833Z,92.73
2018-12-07T14:40:37.363Z,84.10
2018-12-07T14:43:04.993Z,83.57
2018-12-07T14:45:32.642Z,90.80
2018-12-07T14:48:00.107Z,87.20
2018-12-07T14:50:27.934Z,82.67
2018-12-07T14:52:55.439Z,86.67
2018-12-07T14:55:22.841Z,88.60
2018-12-07T14:57:50.480Z,86.40
2018-12-07T15:00:18.141Z,86.10
2018-12-07T15:02:45.665Z,87.73
2018-12-07T15:05:13.238Z,92.93
2018-12-07T15:07:40.842Z,85.77
2018-12-07T15:10:10.222Z,90.80
2018-12-07T15:12:37.793Z,85.37
2018-12-07T15:15:05.684Z,83.67
2018-12-07T15:17:33.269Z,82.80
2018-12-07T15:20:00.951Z,85.67
2018-12-07T15:22:28.524Z,85.37
2018-12-07T15:24:56.074Z,91.00
2018-12-07T15:27:23.829Z,85.70
2018-12-07T15:29:51.485Z,102.67
2018-12-07T15:32:19.099Z,81.07
2018-12-07T15:34:46.593Z,84.20
2018-12-07T15:37:14.313Z,86.97
2018-12-07T15:39:41.855Z,84.77
2018-12-07T15:42:09.401Z,88.07
2018-12-07T15:44:37.961Z,83.77
2018-12-07T15:47:05.422Z,79.10
2018-12-07T15:49:32.967Z,83.77
2018-12-07T15:52:00.473Z,85.90
2018-12-07T15:54:27.865Z,88.30
2018-12-07T15:56:55.269Z,91.83
2018-12-07T15:59:23.844Z,88.30
2018-12-07T16:01:51.425Z,83.63
2018-12-07T16:04:18.933Z,85.43
2018-12-07T16:08:11.058Z,81.17
2018-12-07T16:10:38.679Z,84.23
2018-12-07T16:13:06.356Z,84.20
2018-12-07T16:15:34.337Z,81.27
2018-12-07T16:18:01.933Z,87.33
2018-12-07T16:20:29.791Z,95.73
2018-12-07T16:24:21.562Z,81.27
2018-12-07T16:26:49.083Z,97.03
2018-12-07T16:29:16.775Z,84.50
2018-12-07T16:31:44.404Z,82.53
2018-12-07T16:34:12.103Z,81.77
2018-12-07T16:36:39.637Z,84.33
2018-12-07T16:39:07.677Z,87.97
2018-12-07T16:41:35.378Z,82.77
2018-12-07T16:44:02.990Z,80.37
2018-12-07T16:46:30.740Z,81.07
2018-12-07T16:48:58.374Z,85.07
2018-12-07T16:51:25.819Z,82.90
2018-12-07T16:53:54.046Z,84.20
2018-12-07T16:56:21.825Z,95.63
2018-12-07T16:58:49.344Z,97.87
2018-12-07T17:01:16.889Z,87.30
2018-12-07T17:03:44.403Z,83.63
2018-12-07T17:06:14.504Z,80.80
2018-12-07T17:08:44.756Z,83.83
2018-12-07T17:11:13.915Z,202.80
2018-12-07T17:13:44.303Z,92.67
2018-12-07T17:16:13.892Z,83.30
2018-12-07T17:18:41.660Z,89.97
2018-12-07T17:21:10.410Z,93.37
2018-12-07T17:23:38.309Z,85.87
2018-12-07T17:26:05.974Z,91.10
2018-12-07T17:28:33.693Z,86.60
2018-12-07T17:31:01.372Z,83.57
2018-12-07T17:33:29.058Z,86.47
2018-12-07T17:35:56.512Z,85.20
2018-12-07T17:38:23.871Z,87.00
2018-12-07T17:40:51.800Z,86.30
2018-12-07T17:43:19.494Z,82.40
2018-12-07T17:52:45.887Z,81.07
2018-12-07T17:55:13.294Z,82.07
2018-12-07T17:57:42.436Z,81.50
2018-12-07T18:00:13.918Z,83.30
2018-12-07T18:02:42.635Z,82.07
2018-12-07T18:05:11.980Z,88.27
2018-12-07T18:07:41.193Z,86.10
2018-12-07T18:10:10.427Z,100.07
2018-12-07T18:12:39.413Z,84.67
2018-12-07T18:15:09.862Z,97.03
2018-12-07T18:17:38.886Z,93.77
2018-12-07T18:20:08.884Z,93.30
2018-12-07T18:22:37.704Z,91.30
2018-12-07T18:25:07.605Z,88.33
2018-12-07T18:27:36.674Z,84.57
2018-12-07T18:30:06.310Z,84.10
2018-12-07T18:32:35.001Z,88.53
2018-12-07T18:35:03.949Z,87.20
2018-12-07T18:37:33.318Z,83.00
2018-12-07T18:40:02.403Z,102.63
2018-12-07T18:42:31.749Z,94.13
2018-12-07T18:45:01.223Z,104.40
2018-12-07T18:47:30.307Z,103.43
2018-12-07T18:49:59.389Z,92.33
2018-12-07T18:52:29.567Z,92.33
2018-12-07T18:54:58.829Z,92.90
2018-12-07T18:57:27.805Z,95.87
2018-12-07T18:59:56.942Z,90.90
2018-12-07T19:02:26.292Z,109.83
2018-12-07T19:04:55.249Z,91.40
2018-12-07T19:07:24.062Z,93.50
2018-12-07T19:09:53.199Z,94.60
2018-12-07T19:12:22.742Z,96.90
2018-12-07T19:14:51.527Z,91.00
2018-12-07T19:17:19.120Z,97.43
2018-12-07T19:19:46.828Z,95.47
2018-12-07T19:22:14.637Z,104.47
2018-12-07T19:24:42.141Z,90.23
2018-12-07T19:27:09.734Z,93.20
2018-12-07T19:29:37.390Z,94.27
2018-12-07T19:32:05.026Z,100.60
2018-12-07T19:34:32.636Z,90.80
2018-12-07T19:37:00.260Z,102.77
2018-12-07T19:39:27.884Z,108.60
2018-12-07T19:41:55.448Z,97.80
2018-12-07T19:44:23.581Z,98.37
2018-12-07T19:46:51.077Z,96.27
2018-12-07T19:49:18.698Z,93.27
2018-12-07T19:51:46.607Z,111.33
2018-12-07T19:54:14.211Z,120.63
2018-12-07T19:56:41.690Z,106.03
2018-12-07T19:59:09.198Z,93.80
2018-12-07T20:01:36.632Z,91.53
2018-12-07T20:04:04.186Z,85.27
2018-12-07T20:06:31.866Z,86.80
2018-12-07T20:08:59.416Z,93.47
2018-12-07T20:11:27.133Z,96.27
2018-12-07T20:13:55.165Z,89.07
2018-12-07T20:16:22.813Z,100.03
2018-12-07T20:18:50.296Z,89.57
2018-12-07T20:21:17.803Z,94.80
2018-12-07T20:23:45.438Z,97.27
2018-12-07T20:26:13.242Z,92.07
2018-12-07T20:28:41.236Z,100.80
2018-12-07T20:31:08.883Z,100.43
2018-12-07T20:33:36.719Z,100.50
2018-12-07T20:36:04.502Z,120.50
2018-12-07T20:38:32.421Z,107.20
2018-12-07T20:41:00.051Z,101.70
2018-12-07T20:43:27.875Z,107.27
2018-12-07T20:45:55.534Z,115.23
2018-12-07T20:48:23.278Z,118.13
2018-12-07T20:50:50.828Z,107.87
2018-12-07T20:53:19.058Z,98.40
2018-12-07T20:55:46.682Z,97.43
2018-12-07T20:58:14.446Z,89.43
2018-12-07T21:00:41.975Z,94.63
2018-12-07T21:03:09.558Z,91.77
2018-12-07T21:07:51.826Z,89.43
2018-12-07T21:10:53.933Z,97.77
2018-12-07T21:14:24.983Z,89.60
2018-12-07T21:17:02.711Z,90.10
2018-12-07T21:19:30.502Z,90.60
2018-12-07T21:21:58.115Z,98.40
2018-12-07T21:24:26.341Z,96.67
2018-12-07T21:26:54.008Z,97.80
2018-12-07T21:29:21.520Z,107.67
2018-12-07T21:31:49.227Z,136.80
2018-12-07T21:34:19.820Z,125.10
2018-12-07T21:36:47.600Z,102.47
2018-12-07T21:39:17.733Z,102.60
2018-12-07T21:41:45.291Z,102.93
2018-12-07T21:44:12.918Z,103.50
2018-12-07T21:46:40.755Z,108.57
2018-12-07T21:49:08.393Z,101.33
2018-12-07T21:51:40.891Z,103.87
2018-12-07T21:54:08.329Z,102.00
2018-12-07T21:56:35.992Z,96.87
2018-12-07T21:59:03.528Z,96.20
2018-12-07T22:01:31.005Z,97.03
2018-12-07T22:03:58.543Z,98.47
2018-12-07T22:06:26.294Z,91.77
2018-12-07T22:08:54.024Z,96.40
2018-12-07T22:11:21.710Z,89.23
2018-12-07T22:13:49.418Z,88.57
2018-12-07T22:16:16.959Z,89.07
2018-12-07T22:18:44.418Z,88.30
2018-12-07T22:21:12.101Z,93.87
2018-12-07T22:23:39.924Z,96.90
2018-12-07T22:26:07.778Z,93.33
2018-12-07T22:28:35.260Z,89.10
2018-12-07T22:31:02.721Z,99.77
2018-12-07T22:33:30.304Z,100.27
2018-12-07T22:35:58.199Z,97.53
2018-12-07T22:38:25.796Z,87.40
2018-12-07T22:40:53.706Z,91.20
2018-12-07T22:43:21.469Z,87.30
2018-12-07T22:45:49.518Z,93.50
2018-12-07T22:48:17.471Z,94.30
2018-12-07T22:50:45.023Z,96.67
2018-12-07T22:53:12.405Z,101.20
2018-12-07T22:55:39.755Z,96.97
2018-12-07T22:58:07.416Z,101.40
2018-12-07T23:00:34.772Z,101.97
2018-12-07T23:03:02.179Z,101.23
2018-12-07T23:05:29.586Z,98.93
2018-12-07T23:07:56.964Z,101.00
2018-12-07T23:10:24.624Z,98.57
2018-12-07T23:12:52.187Z,94.17
2018-12-07T23:15:19.615Z,101.77
2018-12-07T23:17:46.954Z,99.67
2018-12-07T23:20:14.370Z,103.27
2018-12-07T23:22:41.772Z,99.23
2018-12-07T23:25:09.145Z,97.43
2018-12-07T23:27:36.481Z,96.87
2018-12-07T23:30:04.486Z,97.47
2018-12-07T23:32:31.919Z,96.97
2018-12-07T23:34:59.380Z,92.77
2018-12-07T23:37:26.753Z,95.93
2018-12-07T23:39:54.203Z,84.70
2018-12-07T23:42:21.993Z,88.10
2018-12-07T23:44:49.415Z,92.57
2018-12-07T23:47:16.764Z,96.07
2018-12-07T23:49:44.143Z,96.70
2018-12-07T23:52:11.484Z,91.53
2018-12-07T23:54:38.923Z,91.10
2018-12-07T23:57:06.958Z,86.53
2018-12-07T23:59:34.337Z,89.13
